sensor_id;sensor_type;location;lat;lon;timestamp;pressure;altitude;pressure_sealevel;temperature
23208;BMP180;11773;52.570;13.052;2023-05-10T00:00:11;100950.00;;;19.00
23208;BMP180;11773;52.570;13.052;2023-05-10T00:02:40;100947.00;;;18.90
23208;BMP180;11773;52.570;13.052;2023-05-10T00:05:10;100954.00;;;18.90
23208;BMP180;11773;52.570;13.052;2023-05-10T00:07:40;100944.00;;;18.90
23208;BMP180;11773;52.570;13.052;2023-05-10T00:10:11;100947.00;;;18.90
23208;BMP180;11773;52.570;13.052;2023-05-10T00:12:42;100945.00;;;18.80
23208;BMP180;11773;52.570;13.052;2023-05-10T00:15:11;100945.00;;;18.80
23208;BMP180;11773;52.570;13.052;2023-05-10T00:17:41;100938.00;;;18.80
23208;BMP180;11773;52.570;13.052;2023-05-10T00:20:11;100931.00;;;18.80
23208;BMP180;11773;52.570;13.052;2023-05-10T00:22:41;100930.00;;;18.80
23208;BMP180;11773;52.570;13.052;2023-05-10T00:25:10;100944.00;;;18.80
23208;BMP180;11773;52.570;13.052;2023-05-10T00:27:40;100933.00;;;18.70
23208;BMP180;11773;52.570;13.052;2023-05-10T00:30:10;100940.00;;;18.70
23208;BMP180;11773;52.570;13.052;2023-05-10T00:32:39;100928.00;;;18.70
23208;BMP180;11773;52.570;13.052;2023-05-10T00:35:09;100921.00;;;18.70
23208;BMP180;11773;52.570;13.052;2023-05-10T00:37:39;100927.00;;;18.60
23208;BMP180;11773;52.570;13.052;2023-05-10T00:40:09;100933.00;;;18.60
23208;BMP180;11773;52.570;13.052;2023-05-10T00:42:39;100917.00;;;18.60
23208;BMP180;11773;52.570;13.052;2023-05-10T00:45:09;100913.00;;;18.60
23208;BMP180;11773;52.570;13.052;2023-05-10T00:47:40;100920.00;;;18.60
23208;BMP180;11773;52.570;13.052;2023-05-10T00:50:10;100917.00;;;18.60
23208;BMP180;11773;52.570;13.052;2023-05-10T00:52:40;100917.00;;;18.60
23208;BMP180;11773;52.570;13.052;2023-05-10T00:55:11;100913.00;;;18.50
23208;BMP180;11773;52.570;13.052;2023-05-10T00:57:41;100918.00;;;18.50
23208;BMP180;11773;52.570;13.052;2023-05-10T01:00:12;100905.00;;;18.50
23208;BMP180;11773;52.570;13.052;2023-05-10T01:02:46;100902.00;;;18.50
23208;BMP180;11773;52.570;13.052;2023-05-10T01:05:16;100904.00;;;18.50
23208;BMP180;11773;52.570;13.052;2023-05-10T01:07:46;100896.00;;;18.50
23208;BMP180;11773;52.570;13.052;2023-05-10T01:10:16;100906.00;;;18.50
23208;BMP180;11773;52.570;13.052;2023-05-10T01:12:47;100891.00;;;18.50
23208;BMP180;11773;52.570;13.052;2023-05-10T01:15:18;100898.00;;;18.40
23208;BMP180;11773;52.570;13.052;2023-05-10T01:17:49;100892.00;;;18.40
23208;BMP180;11773;52.570;13.052;2023-05-10T01:20:19;100895.00;;;18.40
23208;BMP180;11773;52.570;13.052;2023-05-10T01:23:10;100895.00;;;18.40
23208;BMP180;11773;52.570;13.052;2023-05-10T01:26:02;100889.00;;;18.40
23208;BMP180;11773;52.570;13.052;2023-05-10T01:28:58;100885.00;;;18.30
23208;BMP180;11773;52.570;13.052;2023-05-10T01:31:58;100897.00;;;18.30
23208;BMP180;11773;52.570;13.052;2023-05-10T01:34:46;100900.00;;;18.30
23208;BMP180;11773;52.570;13.052;2023-05-10T01:37:20;100896.00;;;18.30
23208;BMP180;11773;52.570;13.052;2023-05-10T01:40:01;100883.00;;;18.20
23208;BMP180;11773;52.570;13.052;2023-05-10T01:42:37;100889.00;;;18.20
23208;BMP180;11773;52.570;13.052;2023-05-10T01:45:27;100874.00;;;18.20
23208;BMP180;11773;52.570;13.052;2023-05-10T01:48:11;100872.00;;;18.10
23208;BMP180;11773;52.570;13.052;2023-05-10T01:50:44;100875.00;;;18.10
23208;BMP180;11773;52.570;13.052;2023-05-10T01:53:18;100876.00;;;18.10
23208;BMP180;11773;52.570;13.052;2023-05-10T01:55:54;100880.00;;;18.10
23208;BMP180;11773;52.570;13.052;2023-05-10T01:58:28;100885.00;;;18.00
23208;BMP180;11773;52.570;13.052;2023-05-10T02:01:03;100872.00;;;18.00
23208;BMP180;11773;52.570;13.052;2023-05-10T02:03:34;100874.00;;;18.00
23208;BMP180;11773;52.570;13.052;2023-05-10T02:06:07;100885.00;;;18.00
23208;BMP180;11773;52.570;13.052;2023-05-10T02:08:40;100871.00;;;18.00
23208;BMP180;11773;52.570;13.052;2023-05-10T02:11:13;100883.00;;;18.00
23208;BMP180;11773;52.570;13.052;2023-05-10T02:13:44;100868.00;;;17.90
23208;BMP180;11773;52.570;13.052;2023-05-10T02:16:18;100870.00;;;17.90
23208;BMP180;11773;52.570;13.052;2023-05-10T02:18:49;100861.00;;;17.90
23208;BMP180;11773;52.570;13.052;2023-05-10T02:21:21;100863.00;;;17.90
23208;BMP180;11773;52.570;13.052;2023-05-10T02:23:54;100856.00;;;17.90
23208;BMP180;11773;52.570;13.052;2023-05-10T02:26:25;100859.00;;;17.90
23208;BMP180;11773;52.570;13.052;2023-05-10T02:28:57;100853.00;;;17.80
23208;BMP180;11773;52.570;13.052;2023-05-10T02:31:28;100851.00;;;17.80
23208;BMP180;11773;52.570;13.052;2023-05-10T02:33:59;100854.00;;;17.70
23208;BMP180;11773;52.570;13.052;2023-05-10T02:36:30;100867.00;;;17.70
23208;BMP180;11773;52.570;13.052;2023-05-10T02:39:02;100868.00;;;17.70
23208;BMP180;11773;52.570;13.052;2023-05-10T02:41:33;100868.00;;;17.70
23208;BMP180;11773;52.570;13.052;2023-05-10T02:44:05;100854.00;;;17.60
23208;BMP180;11773;52.570;13.052;2023-05-10T02:46:36;100849.00;;;17.60
23208;BMP180;11773;52.570;13.052;2023-05-10T02:49:06;100853.00;;;17.60
23208;BMP180;11773;52.570;13.052;2023-05-10T02:51:40;100838.00;;;17.50
23208;BMP180;11773;52.570;13.052;2023-05-10T02:54:19;100852.00;;;17.60
23208;BMP180;11773;52.570;13.052;2023-05-10T02:57:00;100850.00;;;17.50
23208;BMP180;11773;52.570;13.052;2023-05-10T02:59:27;100846.00;;;17.50
23208;BMP180;11773;52.570;13.052;2023-05-10T03:01:56;100849.00;;;17.50
23208;BMP180;11773;52.570;13.052;2023-05-10T03:04:26;100847.00;;;17.50
23208;BMP180;11773;52.570;13.052;2023-05-10T03:06:56;100855.00;;;17.40
23208;BMP180;11773;52.570;13.052;2023-05-10T03:09:25;100857.00;;;17.40
23208;BMP180;11773;52.570;13.052;2023-05-10T03:18:06;100845.00;;;17.20
23208;BMP180;11773;52.570;13.052;2023-05-10T03:20:44;100853.00;;;17.20
23208;BMP180;11773;52.570;13.052;2023-05-10T03:23:27;100832.00;;;17.20
23208;BMP180;11773;52.570;13.052;2023-05-10T03:25:58;100847.00;;;17.10
23208;BMP180;11773;52.570;13.052;2023-05-10T03:28:29;100829.00;;;17.10
23208;BMP180;11773;52.570;13.052;2023-05-10T03:31:00;100830.00;;;17.10
23208;BMP180;11773;52.570;13.052;2023-05-10T03:33:30;100828.00;;;17.10
23208;BMP180;11773;52.570;13.052;2023-05-10T03:36:00;100829.00;;;17.10
23208;BMP180;11773;52.570;13.052;2023-05-10T03:38:29;100834.00;;;17.10
23208;BMP180;11773;52.570;13.052;2023-05-10T03:40:59;100844.00;;;17.10
23208;BMP180;11773;52.570;13.052;2023-05-10T03:43:28;100832.00;;;17.10
23208;BMP180;11773;52.570;13.052;2023-05-10T03:45:58;100829.00;;;17.00
23208;BMP180;11773;52.570;13.052;2023-05-10T03:48:27;100829.00;;;17.00
23208;BMP180;11773;52.570;13.052;2023-05-10T03:50:57;100834.00;;;17.00
23208;BMP180;11773;52.570;13.052;2023-05-10T03:53:27;100835.00;;;17.00
23208;BMP180;11773;52.570;13.052;2023-05-10T03:55:56;100837.00;;;16.90
23208;BMP180;11773;52.570;13.052;2023-05-10T03:58:26;100843.00;;;17.00
23208;BMP180;11773;52.570;13.052;2023-05-10T04:00:55;100831.00;;;16.90
23208;BMP180;11773;52.570;13.052;2023-05-10T04:03:25;100844.00;;;16.90
23208;BMP180;11773;52.570;13.052;2023-05-10T04:06:04;100831.00;;;16.90
23208;BMP180;11773;52.570;13.052;2023-05-10T04:08:34;100828.00;;;16.80
23208;BMP180;11773;52.570;13.052;2023-05-10T04:11:12;100826.00;;;16.80
23208;BMP180;11773;52.570;13.052;2023-05-10T04:13:42;100833.00;;;16.80
23208;BMP180;11773;52.570;13.052;2023-05-10T04:16:11;100825.00;;;16.70
23208;BMP180;11773;52.570;13.052;2023-05-10T04:18:41;100831.00;;;16.70
23208;BMP180;11773;52.570;13.052;2023-05-10T04:21:14;100822.00;;;16.70
23208;BMP180;11773;52.570;13.052;2023-05-10T04:23:43;100818.00;;;16.70
23208;BMP180;11773;52.570;13.052;2023-05-10T04:26:14;100809.00;;;16.70
23208;BMP180;11773;52.570;13.052;2023-05-10T04:28:43;100827.00;;;16.70
23208;BMP180;11773;52.570;13.052;2023-05-10T04:31:13;100819.00;;;16.70
23208;BMP180;11773;52.570;13.052;2023-05-10T04:33:42;100823.00;;;16.70
23208;BMP180;11773;52.570;13.052;2023-05-10T04:36:12;100813.00;;;16.70
23208;BMP180;11773;52.570;13.052;2023-05-10T04:38:42;100816.00;;;16.70
23208;BMP180;11773;52.570;13.052;2023-05-10T04:41:12;100818.00;;;16.70
23208;BMP180;11773;52.570;13.052;2023-05-10T04:43:41;100811.00;;;16.80
23208;BMP180;11773;52.570;13.052;2023-05-10T04:46:11;100817.00;;;16.80
23208;BMP180;11773;52.570;13.052;2023-05-10T04:48:41;100825.00;;;16.80
23208;BMP180;11773;52.570;13.052;2023-05-10T04:51:11;100815.00;;;16.80
23208;BMP180;11773;52.570;13.052;2023-05-10T04:53:41;100805.00;;;16.90
23208;BMP180;11773;52.570;13.052;2023-05-10T04:56:12;100816.00;;;16.90
23208;BMP180;11773;52.570;13.052;2023-05-10T04:58:41;100798.00;;;16.90
23208;BMP180;11773;52.570;13.052;2023-05-10T05:01:11;100798.00;;;16.90
23208;BMP180;11773;52.570;13.052;2023-05-10T05:03:41;100824.00;;;16.90
23208;BMP180;11773;52.570;13.052;2023-05-10T05:06:11;100805.00;;;16.90
23208;BMP180;11773;52.570;13.052;2023-05-10T05:08:40;100803.00;;;17.00
23208;BMP180;11773;52.570;13.052;2023-05-10T05:11:10;100797.00;;;17.00
23208;BMP180;11773;52.570;13.052;2023-05-10T05:13:39;100815.00;;;17.00
23208;BMP180;11773;52.570;13.052;2023-05-10T05:16:09;100828.00;;;17.10
23208;BMP180;11773;52.570;13.052;2023-05-10T05:18:39;100808.00;;;17.10
23208;BMP180;11773;52.570;13.052;2023-05-10T05:21:19;100810.00;;;17.30
23208;BMP180;11773;52.570;13.052;2023-05-10T05:23:49;100799.00;;;17.50
23208;BMP180;11773;52.570;13.052;2023-05-10T05:26:19;100800.00;;;17.70
23208;BMP180;11773;52.570;13.052;2023-05-10T05:28:49;100802.00;;;17.90
23208;BMP180;11773;52.570;13.052;2023-05-10T05:31:20;100807.00;;;18.20
23208;BMP180;11773;52.570;13.052;2023-05-10T05:33:50;100820.00;;;18.40
23208;BMP180;11773;52.570;13.052;2023-05-10T05:36:20;100825.00;;;18.70
23208;BMP180;11773;52.570;13.052;2023-05-10T05:38:49;100808.00;;;19.00
23208;BMP180;11773;52.570;13.052;2023-05-10T05:41:19;100811.00;;;19.30
23208;BMP180;11773;52.570;13.052;2023-05-10T05:43:49;100809.00;;;19.50
23208;BMP180;11773;52.570;13.052;2023-05-10T05:46:19;100819.00;;;19.70
23208;BMP180;11773;52.570;13.052;2023-05-10T05:48:49;100817.00;;;19.90
23208;BMP180;11773;52.570;13.052;2023-05-10T05:51:18;100811.00;;;20.10
23208;BMP180;11773;52.570;13.052;2023-05-10T05:53:48;100812.00;;;20.30
23208;BMP180;11773;52.570;13.052;2023-05-10T05:56:18;100814.00;;;20.60
23208;BMP180;11773;52.570;13.052;2023-05-10T05:58:49;100818.00;;;20.80
23208;BMP180;11773;52.570;13.052;2023-05-10T06:01:19;100813.00;;;20.90
23208;BMP180;11773;52.570;13.052;2023-05-10T06:03:48;100815.00;;;21.10
23208;BMP180;11773;52.570;13.052;2023-05-10T06:06:19;100816.00;;;21.30
23208;BMP180;11773;52.570;13.052;2023-05-10T06:08:49;100816.00;;;21.40
23208;BMP180;11773;52.570;13.052;2023-05-10T06:11:18;100827.00;;;21.50
23208;BMP180;11773;52.570;13.052;2023-05-10T06:13:49;100814.00;;;21.60
23208;BMP180;11773;52.570;13.052;2023-05-10T06:16:19;100836.00;;;21.70
23208;BMP180;11773;52.570;13.052;2023-05-10T06:18:48;100819.00;;;21.80
23208;BMP180;11773;52.570;13.052;2023-05-10T06:21:18;100813.00;;;21.90
23208;BMP180;11773;52.570;13.052;2023-05-10T06:23:48;100823.00;;;22.00
23208;BMP180;11773;52.570;13.052;2023-05-10T06:26:18;100827.00;;;22.10
23208;BMP180;11773;52.570;13.052;2023-05-10T06:28:49;100822.00;;;22.10
23208;BMP180;11773;52.570;13.052;2023-05-10T06:31:18;100828.00;;;22.20
23208;BMP180;11773;52.570;13.052;2023-05-10T06:33:48;100813.00;;;22.20
23208;BMP180;11773;52.570;13.052;2023-05-10T06:36:17;100808.00;;;22.20
23208;BMP180;11773;52.570;13.052;2023-05-10T06:38:47;100815.00;;;22.30
23208;BMP180;11773;52.570;13.052;2023-05-10T06:41:16;100813.00;;;22.30
23208;BMP180;11773;52.570;13.052;2023-05-10T06:43:46;100809.00;;;22.40
23208;BMP180;11773;52.570;13.052;2023-05-10T06:46:16;100808.00;;;22.40
23208;BMP180;11773;52.570;13.052;2023-05-10T06:48:45;100810.00;;;22.50
23208;BMP180;11773;52.570;13.052;2023-05-10T06:51:15;100826.00;;;22.60
23208;BMP180;11773;52.570;13.052;2023-05-10T06:53:44;100809.00;;;22.60
23208;BMP180;11773;52.570;13.052;2023-05-10T06:56:14;100825.00;;;22.60
23208;BMP180;11773;52.570;13.052;2023-05-10T06:58:43;100815.00;;;22.70
23208;BMP180;11773;52.570;13.052;2023-05-10T07:01:14;100816.00;;;22.70
23208;BMP180;11773;52.570;13.052;2023-05-10T07:03:43;100813.00;;;22.70
23208;BMP180;11773;52.570;13.052;2023-05-10T07:06:13;100825.00;;;22.80
23208;BMP180;11773;52.570;13.052;2023-05-10T07:08:44;100820.00;;;22.80
23208;BMP180;11773;52.570;13.052;2023-05-10T07:11:14;100830.00;;;22.90
23208;BMP180;11773;52.570;13.052;2023-05-10T07:13:43;100824.00;;;22.90
23208;BMP180;11773;52.570;13.052;2023-05-10T07:16:14;100814.00;;;23.00
23208;BMP180;11773;52.570;13.052;2023-05-10T07:18:44;100818.00;;;23.00
23208;BMP180;11773;52.570;13.052;2023-05-10T07:21:13;100801.00;;;23.00
23208;BMP180;11773;52.570;13.052;2023-05-10T07:23:43;100802.00;;;23.10
23208;BMP180;11773;52.570;13.052;2023-05-10T07:26:12;100822.00;;;23.10
23208;BMP180;11773;52.570;13.052;2023-05-10T07:28:43;100809.00;;;23.20
23208;BMP180;11773;52.570;13.052;2023-05-10T07:31:12;100810.00;;;23.20
23208;BMP180;11773;52.570;13.052;2023-05-10T07:33:42;100818.00;;;23.20
23208;BMP180;11773;52.570;13.052;2023-05-10T07:36:11;100813.00;;;23.30
23208;BMP180;11773;52.570;13.052;2023-05-10T07:38:41;100816.00;;;23.30
23208;BMP180;11773;52.570;13.052;2023-05-10T07:41:12;100831.00;;;23.40
23208;BMP180;11773;52.570;13.052;2023-05-10T07:43:42;100831.00;;;23.40
23208;BMP180;11773;52.570;13.052;2023-05-10T07:46:12;100821.00;;;23.40
23208;BMP180;11773;52.570;13.052;2023-05-10T07:48:41;100832.00;;;23.40
23208;BMP180;11773;52.570;13.052;2023-05-10T07:51:11;100822.00;;;23.50
23208;BMP180;11773;52.570;13.052;2023-05-10T07:53:41;100815.00;;;23.50
23208;BMP180;11773;52.570;13.052;2023-05-10T07:56:31;100830.00;;;23.60
23208;BMP180;11773;52.570;13.052;2023-05-10T07:59:03;100810.00;;;23.60
23208;BMP180;11773;52.570;13.052;2023-05-10T08:01:34;100823.00;;;23.60
23208;BMP180;11773;52.570;13.052;2023-05-10T08:04:04;100808.00;;;23.60
23208;BMP180;11773;52.570;13.052;2023-05-10T08:06:34;100817.00;;;23.60
23208;BMP180;11773;52.570;13.052;2023-05-10T08:09:03;100820.00;;;23.70
23208;BMP180;11773;52.570;13.052;2023-05-10T08:11:33;100822.00;;;23.70
23208;BMP180;11773;52.570;13.052;2023-05-10T08:14:03;100813.00;;;23.70
23208;BMP180;11773;52.570;13.052;2023-05-10T08:16:33;100810.00;;;23.70
23208;BMP180;11773;52.570;13.052;2023-05-10T08:19:02;100834.00;;;23.80
23208;BMP180;11773;52.570;13.052;2023-05-10T08:21:33;100827.00;;;23.90
23208;BMP180;11773;52.570;13.052;2023-05-10T08:24:02;100828.00;;;23.90
23208;BMP180;11773;52.570;13.052;2023-05-10T08:26:33;100832.00;;;24.00
23208;BMP180;11773;52.570;13.052;2023-05-10T08:29:03;100831.00;;;24.00
23208;BMP180;11773;52.570;13.052;2023-05-10T08:31:32;100820.00;;;24.10
23208;BMP180;11773;52.570;13.052;2023-05-10T08:34:02;100839.00;;;24.20
23208;BMP180;11773;52.570;13.052;2023-05-10T08:36:32;100835.00;;;24.20
23208;BMP180;11773;52.570;13.052;2023-05-10T08:39:01;100836.00;;;24.20
23208;BMP180;11773;52.570;13.052;2023-05-10T08:41:33;100829.00;;;24.20
23208;BMP180;11773;52.570;13.052;2023-05-10T08:44:05;100830.00;;;24.30
23208;BMP180;11773;52.570;13.052;2023-05-10T08:46:38;100829.00;;;24.30
23208;BMP180;11773;52.570;13.052;2023-05-10T08:49:14;100827.00;;;24.40
23208;BMP180;11773;52.570;13.052;2023-05-10T08:51:49;100830.00;;;24.40
23208;BMP180;11773;52.570;13.052;2023-05-10T08:54:19;100827.00;;;24.50
23208;BMP180;11773;52.570;13.052;2023-05-10T08:56:50;100827.00;;;24.50
23208;BMP180;11773;52.570;13.052;2023-05-10T08:59:19;100827.00;;;24.50
23208;BMP180;11773;52.570;13.052;2023-05-10T09:01:50;100844.00;;;24.60
23208;BMP180;11773;52.570;13.052;2023-05-10T09:04:21;100829.00;;;24.60
23208;BMP180;11773;52.570;13.052;2023-05-10T09:06:52;100844.00;;;24.60
23208;BMP180;11773;52.570;13.052;2023-05-10T09:09:23;100833.00;;;24.60
23208;BMP180;11773;52.570;13.052;2023-05-10T09:11:54;100834.00;;;24.60
23208;BMP180;11773;52.570;13.052;2023-05-10T09:14:25;100833.00;;;24.70
23208;BMP180;11773;52.570;13.052;2023-05-10T09:16:55;100819.00;;;24.80
23208;BMP180;11773;52.570;13.052;2023-05-10T09:19:25;100847.00;;;24.80
23208;BMP180;11773;52.570;13.052;2023-05-10T09:21:54;100839.00;;;24.80
23208;BMP180;11773;52.570;13.052;2023-05-10T09:24:28;100844.00;;;24.90
23208;BMP180;11773;52.570;13.052;2023-05-10T09:26:58;100849.00;;;24.90
23208;BMP180;11773;52.570;13.052;2023-05-10T09:29:43;100847.00;;;25.00
23208;BMP180;11773;52.570;13.052;2023-05-10T09:32:15;100846.00;;;25.00
23208;BMP180;11773;52.570;13.052;2023-05-10T09:34:44;100846.00;;;25.00
23208;BMP180;11773;52.570;13.052;2023-05-10T09:37:14;100849.00;;;25.10
23208;BMP180;11773;52.570;13.052;2023-05-10T09:39:43;100844.00;;;25.10
23208;BMP180;11773;52.570;13.052;2023-05-10T09:42:13;100849.00;;;25.20
23208;BMP180;11773;52.570;13.052;2023-05-10T09:44:45;100847.00;;;25.20
23208;BMP180;11773;52.570;13.052;2023-05-10T09:47:19;100855.00;;;25.30
23208;BMP180;11773;52.570;13.052;2023-05-10T09:49:53;100856.00;;;25.30
23208;BMP180;11773;52.570;13.052;2023-05-10T09:52:24;100854.00;;;25.40
23208;BMP180;11773;52.570;13.052;2023-05-10T09:54:54;100862.00;;;25.50
23208;BMP180;11773;52.570;13.052;2023-05-10T09:57:25;100860.00;;;25.60
23208;BMP180;11773;52.570;13.052;2023-05-10T09:59:54;100856.00;;;25.60
23208;BMP180;11773;52.570;13.052;2023-05-10T10:02:28;100859.00;;;25.70
23208;BMP180;11773;52.570;13.052;2023-05-10T10:05:00;100864.00;;;25.70
23208;BMP180;11773;52.570;13.052;2023-05-10T10:07:31;100862.00;;;25.70
23208;BMP180;11773;52.570;13.052;2023-05-10T10:10:02;100857.00;;;25.80
23208;BMP180;11773;52.570;13.052;2023-05-10T10:12:33;100867.00;;;25.80
23208;BMP180;11773;52.570;13.052;2023-05-10T10:15:05;100855.00;;;25.90
23208;BMP180;11773;52.570;13.052;2023-05-10T10:17:37;100856.00;;;25.90
23208;BMP180;11773;52.570;13.052;2023-05-10T10:20:10;100863.00;;;25.90
23208;BMP180;11773;52.570;13.052;2023-05-10T10:22:39;100857.00;;;25.90
23208;BMP180;11773;52.570;13.052;2023-05-10T10:25:11;100860.00;;;25.90
23208;BMP180;11773;52.570;13.052;2023-05-10T10:30:46;100862.00;;;26.00
23208;BMP180;11773;52.570;13.052;2023-05-10T10:36:10;100847.00;;;26.00
23208;BMP180;11773;52.570;13.052;2023-05-10T10:39:00;100849.00;;;26.10
23208;BMP180;11773;52.570;13.052;2023-05-10T10:41:39;100844.00;;;26.10
23208;BMP180;11773;52.570;13.052;2023-05-10T10:44:35;100844.00;;;26.20
23208;BMP180;11773;52.570;13.052;2023-05-10T10:50:04;100860.00;;;26.20
23208;BMP180;11773;52.570;13.052;2023-05-10T10:52:42;100834.00;;;26.20
23208;BMP180;11773;52.570;13.052;2023-05-10T10:55:21;100853.00;;;26.30
23208;BMP180;11773;52.570;13.052;2023-05-10T10:57:55;100852.00;;;26.40
23208;BMP180;11773;52.570;13.052;2023-05-10T11:00:35;100852.00;;;26.40
23208;BMP180;11773;52.570;13.052;2023-05-10T11:03:15;100838.00;;;26.40
23208;BMP180;11773;52.570;13.052;2023-05-10T11:05:48;100833.00;;;26.50
23208;BMP180;11773;52.570;13.052;2023-05-10T11:08:30;100832.00;;;26.50
23208;BMP180;11773;52.570;13.052;2023-05-10T11:11:04;100836.00;;;26.60
23208;BMP180;11773;52.570;13.052;2023-05-10T11:13:46;100845.00;;;26.60
23208;BMP180;11773;52.570;13.052;2023-05-10T11:16:22;100836.00;;;26.70
23208;BMP180;11773;52.570;13.052;2023-05-10T11:19:05;100833.00;;;26.70
23208;BMP180;11773;52.570;13.052;2023-05-10T11:22:11;100835.00;;;26.80
23208;BMP180;11773;52.570;13.052;2023-05-10T11:24:26;100837.00;;;26.80
23208;BMP180;11773;52.570;13.052;2023-05-10T11:26:57;100830.00;;;26.90
23208;BMP180;11773;52.570;13.052;2023-05-10T11:29:27;100836.00;;;26.90
23208;BMP180;11773;52.570;13.052;2023-05-10T11:31:59;100845.00;;;27.00
23208;BMP180;11773;52.570;13.052;2023-05-10T11:34:30;100844.00;;;27.00
23208;BMP180;11773;52.570;13.052;2023-05-10T11:37:02;100847.00;;;27.10
23208;BMP180;11773;52.570;13.052;2023-05-10T11:39:32;100847.00;;;27.10
23208;BMP180;11773;52.570;13.052;2023-05-10T11:42:02;100850.00;;;27.20
23208;BMP180;11773;52.570;13.052;2023-05-10T11:44:32;100844.00;;;27.20
23208;BMP180;11773;52.570;13.052;2023-05-10T11:47:03;100848.00;;;27.30
23208;BMP180;11773;52.570;13.052;2023-05-10T11:49:32;100844.00;;;27.30
23208;BMP180;11773;52.570;13.052;2023-05-10T11:52:06;100834.00;;;27.20
23208;BMP180;11773;52.570;13.052;2023-05-10T11:54:36;100852.00;;;27.30
23208;BMP180;11773;52.570;13.052;2023-05-10T11:57:05;100852.00;;;27.30
23208;BMP180;11773;52.570;13.052;2023-05-10T11:59:36;100839.00;;;27.30
23208;BMP180;11773;52.570;13.052;2023-05-10T12:02:05;100844.00;;;27.30
23208;BMP180;11773;52.570;13.052;2023-05-10T12:04:35;100835.00;;;27.30
23208;BMP180;11773;52.570;13.052;2023-05-10T12:07:05;100838.00;;;27.40
23208;BMP180;11773;52.570;13.052;2023-05-10T12:09:34;100855.00;;;27.50
23208;BMP180;11773;52.570;13.052;2023-05-10T12:12:05;100833.00;;;27.50
23208;BMP180;11773;52.570;13.052;2023-05-10T12:14:37;100835.00;;;27.60
23208;BMP180;11773;52.570;13.052;2023-05-10T12:17:11;100853.00;;;27.70
23208;BMP180;11773;52.570;13.052;2023-05-10T12:19:41;100844.00;;;27.70
23208;BMP180;11773;52.570;13.052;2023-05-10T12:22:12;100858.00;;;27.80
23208;BMP180;11773;52.570;13.052;2023-05-10T12:24:41;100838.00;;;27.80
23208;BMP180;11773;52.570;13.052;2023-05-10T12:27:11;100853.00;;;27.80
23208;BMP180;11773;52.570;13.052;2023-05-10T12:29:42;100839.00;;;27.90
23208;BMP180;11773;52.570;13.052;2023-05-10T12:32:12;100844.00;;;27.90
23208;BMP180;11773;52.570;13.052;2023-05-10T12:34:42;100853.00;;;27.90
23208;BMP180;11773;52.570;13.052;2023-05-10T12:37:12;100845.00;;;28.00
23208;BMP180;11773;52.570;13.052;2023-05-10T12:39:44;100858.00;;;28.00
23208;BMP180;11773;52.570;13.052;2023-05-10T12:42:14;100851.00;;;28.00
23208;BMP180;11773;52.570;13.052;2023-05-10T12:44:44;100857.00;;;28.00
23208;BMP180;11773;52.570;13.052;2023-05-10T12:47:13;100849.00;;;28.10
23208;BMP180;11773;52.570;13.052;2023-05-10T12:49:43;100859.00;;;28.10
23208;BMP180;11773;52.570;13.052;2023-05-10T12:52:12;100869.00;;;28.10
23208;BMP180;11773;52.570;13.052;2023-05-10T12:54:42;100860.00;;;28.10
23208;BMP180;11773;52.570;13.052;2023-05-10T12:57:12;100864.00;;;28.10
23208;BMP180;11773;52.570;13.052;2023-05-10T12:59:41;100855.00;;;28.20
23208;BMP180;11773;52.570;13.052;2023-05-10T13:02:11;100849.00;;;28.20
23208;BMP180;11773;52.570;13.052;2023-05-10T13:04:41;100860.00;;;28.20
23208;BMP180;11773;52.570;13.052;2023-05-10T13:07:11;100858.00;;;28.20
23208;BMP180;11773;52.570;13.052;2023-05-10T13:09:41;100861.00;;;28.20
23208;BMP180;11773;52.570;13.052;2023-05-10T13:12:10;100855.00;;;28.20
23208;BMP180;11773;52.570;13.052;2023-05-10T13:14:40;100862.00;;;28.30
23208;BMP180;11773;52.570;13.052;2023-05-10T13:17:09;100860.00;;;28.30
23208;BMP180;11773;52.570;13.052;2023-05-10T13:19:39;100856.00;;;28.30
23208;BMP180;11773;52.570;13.052;2023-05-10T13:22:08;100858.00;;;28.30
23208;BMP180;11773;52.570;13.052;2023-05-10T13:24:38;100850.00;;;28.30
23208;BMP180;11773;52.570;13.052;2023-05-10T13:27:08;100856.00;;;28.30
23208;BMP180;11773;52.570;13.052;2023-05-10T13:29:37;100852.00;;;28.40
23208;BMP180;11773;52.570;13.052;2023-05-10T13:32:07;100844.00;;;28.40
23208;BMP180;11773;52.570;13.052;2023-05-10T13:34:36;100855.00;;;28.40
23208;BMP180;11773;52.570;13.052;2023-05-10T13:37:06;100851.00;;;28.40
23208;BMP180;11773;52.570;13.052;2023-05-10T13:39:36;100839.00;;;28.40
23208;BMP180;11773;52.570;13.052;2023-05-10T13:42:05;100855.00;;;28.40
23208;BMP180;11773;52.570;13.052;2023-05-10T13:44:35;100838.00;;;28.40
23208;BMP180;11773;52.570;13.052;2023-05-10T13:47:07;100837.00;;;28.40
23208;BMP180;11773;52.570;13.052;2023-05-10T13:49:37;100848.00;;;28.40
23208;BMP180;11773;52.570;13.052;2023-05-10T13:52:06;100845.00;;;28.50
23208;BMP180;11773;52.570;13.052;2023-05-10T13:54:37;100847.00;;;28.50
23208;BMP180;11773;52.570;13.052;2023-05-10T13:57:07;100844.00;;;28.40
23208;BMP180;11773;52.570;13.052;2023-05-10T13:59:37;100856.00;;;28.40
23208;BMP180;11773;52.570;13.052;2023-05-10T14:02:07;100856.00;;;28.40
23208;BMP180;11773;52.570;13.052;2023-05-10T14:04:36;100851.00;;;28.40
23208;BMP180;11773;52.570;13.052;2023-05-10T14:07:06;100850.00;;;28.40
23208;BMP180;11773;52.570;13.052;2023-05-10T14:09:36;100836.00;;;28.30
23208;BMP180;11773;52.570;13.052;2023-05-10T14:12:05;100851.00;;;28.30
23208;BMP180;11773;52.570;13.052;2023-05-10T14:14:35;100839.00;;;28.30
23208;BMP180;11773;52.570;13.052;2023-05-10T14:17:04;100831.00;;;28.30
23208;BMP180;11773;52.570;13.052;2023-05-10T14:19:34;100836.00;;;28.20
23208;BMP180;11773;52.570;13.052;2023-05-10T14:22:03;100844.00;;;28.20